Time;durP1;ratioP1;P1;durP2;ratioP2;P2;SDS_P1;SDS_P2;PMS_P1;PMS_P2;Temp;Humidity;BMP_temperature;BMP_pressure;BME280_temperature;BME280_humidity;BME280_pressure;Samples;Min_cycle;Max_cycle;Signal;HPM_P1;HPM_P2
2022/09/11 00:00:50;;;;;;;;;13.00;12.00;;;;;17.13;80.01;101318.09;5095600;27;45441;-59
2022/09/11 00:03:17;;;;;;;;;11.67;11.67;;;;;17.10;80.29;101308.44;5078178;27;45394;-58
2022/09/11 00:05:43;;;;;;;;;8.67;8.67;;;;;17.07;80.09;101305.97;5089892;27;45384;-58
2022/09/11 00:08:10;;;;;;;;;14.33;12.33;;;;;17.04;80.21;101312.41;5080331;27;45468;-57
2022/09/11 00:10:39;;;;;;;;;10.67;9.33;;;;;17.01;80.30;101309.94;5088529;27;45337;-56
2022/09/11 00:13:13;;;;;;;;;12.00;12.00;;;;;17.01;80.38;101312.63;5096656;27;45459;-58
2022/09/11 00:15:40;;;;;;;;;13.67;12.00;;;;;17.01;80.31;101312.63;5085115;27;45527;-56
2022/09/11 00:18:08;;;;;;;;;10.33;10.33;;;;;16.97;80.51;101303.06;5077441;27;46463;-55
2022/09/11 00:20:34;;;;;;;;;10.00;9.00;;;;;17.00;80.48;101307.38;5075977;28;45569;-57
2022/09/11 00:23:04;;;;;;;;;14.33;13.00;;;;;16.98;80.55;101306.63;5082623;27;45519;-56
2022/09/11 00:25:39;;;;;;;;;10.33;10.33;;;;;16.96;80.55;101312.09;5091076;27;45483;-56
2022/09/11 00:28:06;;;;;;;;;14.33;12.00;;;;;16.93;80.68;101298.91;5094798;27;46743;-57
2022/09/11 00:30:31;;;;;;;;;14.00;12.33;;;;;16.88;80.61;101292.13;5092549;27;45580;-59
2022/09/11 00:32:57;;;;;;;;;13.33;12.00;;;;;16.95;80.79;101304.16;5080371;27;45522;-59
2022/09/11 00:35:23;;;;;;;;;14.00;11.00;;;;;16.95;80.75;101304.16;5094727;27;45605;-56
2022/09/11 00:37:51;;;;;;;;;12.33;12.00;;;;;16.89;81.01;101299.22;5094581;27;45560;-56
2022/09/11 00:40:17;;;;;;;;;13.33;12.00;;;;;16.91;81.23;101308.00;5092515;27;45511;-56
2022/09/11 00:42:43;;;;;;;;;12.33;11.33;;;;;16.91;81.11;101308.88;5092729;27;45660;-55
2022/09/11 00:45:30;;;;;;;;;9.00;9.00;;;;;16.85;81.08;101298.56;5096357;27;45386;-61
2022/09/11 00:47:58;;;;;;;;;12.33;12.33;;;;;16.86;81.18;101302.97;5085691;27;46237;-56
2022/09/11 00:50:27;;;;;;;;;11.67;11.67;;;;;16.84;81.08;101298.69;5081302;27;46101;-56
2022/09/11 00:52:59;;;;;;;;;11.00;11.00;;;;;16.84;81.25;101291.50;5087433;27;45382;-56
2022/09/11 00:55:27;;;;;;;;;13.67;13.67;;;;;16.85;81.25;101293.19;5085200;27;45610;-58
2022/09/11 00:58:05;;;;;;;;;11.67;11.00;;;;;16.82;81.00;101287.19;5085900;27;45985;-57
2022/09/11 01:00:31;;;;;;;;;14.00;11.33;;;;;16.81;81.50;101286.34;5096095;27;45318;-57
2022/09/11 01:02:57;;;;;;;;;14.33;13.00;;;;;16.82;81.44;101287.19;5096538;27;45351;-58
2022/09/11 01:05:25;;;;;;;;;15.33;15.00;;;;;16.82;81.62;101281.81;5097004;27;45567;-59
2022/09/11 01:07:53;;;;;;;;;15.67;12.00;;;;;16.79;81.82;101285.56;5096424;27;45402;-58
2022/09/11 01:10:25;;;;;;;;;14.67;14.00;;;;;16.76;81.96;101283.97;5093670;27;45523;-57
2022/09/11 01:13:08;;;;;;;;;14.67;12.00;;;;;16.75;81.47;101270.63;5076029;27;45441;-56
2022/09/11 01:15:57;;;;;;;;;11.00;10.33;;;;;16.74;81.37;101276.97;5077065;27;45333;-57
2022/09/11 01:18:33;;;;;;;;;15.67;14.00;;;;;16.76;81.60;101280.41;5094206;27;45396;-57
2022/09/11 01:21:51;;;;;;;;;14.00;12.00;;;;;16.70;81.56;101276.34;5096522;27;45222;-56
2022/09/11 01:24:34;;;;;;;;;12.67;12.67;;;;;16.73;81.64;101272.59;5065174;27;45543;-58
2022/09/11 01:27:32;;;;;;;;;16.00;14.00;;;;;16.70;81.66;101275.50;5093110;27;45632;-56
2022/09/11 01:30:07;;;;;;;;;17.33;15.00;;;;;16.71;81.82;101279.91;5089429;27;47382;-58
2022/09/11 01:32:48;;;;;;;;;19.00;14.67;;;;;16.70;81.65;101278.19;5076629;27;45476;-56
2022/09/11 01:35:54;;;;;;;;;12.00;12.00;;;;;16.68;81.63;101274.75;5077541;27;45169;-54
2022/09/11 01:38:32;;;;;;;;;15.00;13.67;;;;;16.68;81.66;101270.22;5077926;27;45295;-56
2022/09/11 01:41:06;;;;;;;;;15.67;14.33;;;;;16.68;81.70;101272.06;5090176;27;46765;-59
2022/09/11 01:43:37;;;;;;;;;14.33;12.00;;;;;16.66;82.00;101268.56;5092576;27;45290;-57
2022/09/11 01:46:06;;;;;;;;;18.00;12.33;;;;;16.67;82.28;101273.00;5093989;27;45598;-57
2022/09/11 01:48:44;;;;;;;;;16.67;16.00;;;;;16.63;82.63;101266.97;5095843;27;45590;-57
2022/09/11 01:51:17;;;;;;;;;14.00;13.00;;;;;16.62;83.01;101264.38;5093512;27;46191;-58
2022/09/11 01:53:47;;;;;;;;;16.00;14.00;;;;;16.62;82.33;101272.44;5091032;27;45845;-58
2022/09/11 01:56:21;;;;;;;;;16.00;14.00;;;;;16.61;82.34;101270.72;5095935;27;45552;-56
2022/09/11 01:58:50;;;;;;;;;14.00;14.00;;;;;16.61;82.21;101273.41;5078551;27;45529;-56
2022/09/11 02:01:22;;;;;;;;;21.67;16.67;;;;;16.60;82.36;101266.31;5089672;27;45325;-59
2022/09/11 02:03:59;;;;;;;;;13.67;13.67;;;;;16.61;82.37;101270.72;5075876;27;45498;-54
2022/09/11 02:06:31;;;;;;;;;15.67;15.67;;;;;16.60;82.13;101271.69;5081602;27;46828;-59
2022/09/11 02:09:01;;;;;;;;;19.00;16.67;;;;;16.59;82.69;101268.16;5096028;27;45464;-56
2022/09/11 02:11:34;;;;;;;;;18.00;13.67;;;;;16.51;82.71;101259.78;5082277;27;45455;-58
2022/09/11 02:14:00;;;;;;;;;15.00;15.00;;;;;16.55;82.64;101265.81;5075511;27;45229;-58
2022/09/11 02:16:44;;;;;;;;;13.33;13.00;;;;;16.55;82.54;101257.75;5081460;27;45265;-58
2022/09/11 02:19:16;;;;;;;;;16.67;14.00;;;;;16.51;82.98;101263.31;5093553;27;45231;-56
2022/09/11 02:21:43;;;;;;;;;15.33;14.33;;;;;16.50;83.04;101272.34;5086705;27;46462;-56
2022/09/11 02:24:09;;;;;;;;;14.33;14.33;;;;;16.48;83.11;101262.69;5087226;27;45303;-57
2022/09/11 02:26:42;;;;;;;;;15.33;14.00;;;;;16.45;83.15;101258.38;5095548;27;45288;-57
2022/09/11 02:29:07;;;;;;;;;16.33;15.33;;;;;16.46;83.23;101260.09;5094984;27;45310;-56
2022/09/11 02:31:34;;;;;;;;;21.00;16.00;;;;;16.48;82.84;101273.41;5085346;27;46069;-56
2022/09/11 02:34:00;;;;;;;;;18.67;15.33;;;;;16.48;83.16;101262.69;5093450;27;45585;-55
2022/09/11 02:36:28;;;;;;;;;16.67;14.67;;;;;16.46;82.88;101260.09;5093689;27;45513;-59
2022/09/11 02:39:23;;;;;;;;;17.33;14.67;;;;;16.46;82.68;101268.16;5092106;27;45417;-57
2022/09/11 02:42:11;;;;;;;;;22.00;15.67;;;;;16.45;83.03;101271.81;5093241;27;46311;-56
2022/09/11 02:45:02;;;;;;;;;17.00;14.33;;;;;16.43;83.22;101278.25;5095356;27;45506;-58
2022/09/11 02:47:51;;;;;;;;;15.67;15.67;;;;;16.40;83.78;101276.63;5093865;27;45380;-58
2022/09/11 02:50:35;;;;;;;;;15.33;13.67;;;;;16.37;83.99;101268.78;5088032;27;45471;-56
2022/09/11 02:53:11;;;;;;;;;21.00;19.33;;;;;16.36;83.78;101275.13;5093774;27;46398;-57
2022/09/11 02:55:52;;;;;;;;;20.33;16.67;;;;;16.34;83.99;101271.69;5084191;27;45419;-56
2022/09/11 02:58:35;;;;;;;;;16.00;16.00;;;;;16.31;83.85;101265.69;5085321;27;45421;-60
2022/09/11 03:01:02;;;;;;;;;16.67;13.00;;;;;16.34;83.75;101270.84;5080203;27;45423;-58
2022/09/11 03:03:28;;;;;;;;;19.67;17.00;;;;;16.31;83.90;101271.91;5095893;27;46354;-59
2022/09/11 03:05:54;;;;;;;;;17.67;17.33;;;;;16.32;83.57;101270.94;5081049;27;45472;-57
2022/09/11 03:08:19;;;;;;;;;18.33;16.00;;;;;16.27;83.58;101253.41;5076746;27;45428;-56
2022/09/11 03:10:45;;;;;;;;;17.00;17.00;;;;;16.34;83.11;101269.00;5078438;27;45719;-60
2022/09/11 03:13:13;;;;;;;;;19.67;16.00;;;;;16.29;83.29;101257.75;5099207;27;45716;-59
2022/09/11 03:15:39;;;;;;;;;15.33;15.33;;;;;16.35;83.22;101261.81;5098584;27;45554;-59
2022/09/11 03:18:04;;;;;;;;;23.33;18.33;;;;;16.31;83.18;101266.53;5099002;27;45341;-59
2022/09/11 03:20:30;;;;;;;;;16.33;13.67;;;;;16.31;83.04;101261.19;5098857;27;45205;-58
2022/09/11 03:22:55;;;;;;;;;19.00;19.00;;;;;16.30;83.40;101264.81;5090607;27;46150;-57
2022/09/11 03:25:27;;;;;;;;;21.33;21.33;;;;;16.28;83.45;101265.91;5080431;27;46664;-57
2022/09/11 03:27:53;;;;;;;;;18.67;17.67;;;;;16.26;83.51;101262.44;5081420;27;45413;-58
2022/09/11 03:30:20;;;;;;;;;18.67;16.67;;;;;16.26;83.76;101262.44;5081479;27;47318;-56
2022/09/11 03:32:45;;;;;;;;;19.00;15.33;;;;;16.14;83.71;101242.69;5078068;27;45442;-60
2022/09/11 03:35:11;;;;;;;;;21.67;17.67;;;;;16.23;83.34;101264.38;5088164;27;45326;-59
2022/09/11 03:37:36;;;;;;;;;21.33;17.33;;;;;16.21;83.74;101260.94;5097212;27;45386;-63
2022/09/11 03:40:03;;;;;;;;;20.33;17.33;;;;;16.20;83.72;101258.38;5095247;27;45467;-57
2022/09/11 03:42:28;;;;;;;;;18.33;16.00;;;;;16.17;83.76;101264.81;5094441;27;46128;-57
2022/09/11 03:44:54;;;;;;;;;22.00;15.00;;;;;16.18;83.46;101258.47;5098381;27;45362;-59
2022/09/11 03:47:21;;;;;;;;;19.67;18.00;;;;;16.16;84.04;101254.19;5081468;27;45420;-57
2022/09/11 03:49:47;;;;;;;;;18.33;15.33;;;;;16.14;84.28;101264.16;5093047;27;45333;-58
2022/09/11 03:52:13;;;;;;;;;19.00;16.00;;;;;16.13;84.20;101267.78;5097640;27;46550;-57
2022/09/11 03:54:38;;;;;;;;;18.00;15.33;;;;;16.12;84.10;101263.41;5119362;27;45194;-56
2022/09/11 03:57:05;;;;;;;;;19.67;17.67;;;;;16.07;84.37;101254.81;5093632;27;45329;-57
2022/09/11 03:59:30;;;;;;;;;19.00;16.33;;;;;16.12;84.24;101263.41;5098141;27;45346;-56
2022/09/11 04:01:56;;;;;;;;;18.67;16.33;;;;;16.09;83.68;101261.78;5084733;27;45918;-55
2022/09/11 04:04:21;;;;;;;;;18.00;17.67;;;;;16.11;84.10;101272.41;5095242;27;45446;-56
2022/09/11 04:06:47;;;;;;;;;15.67;15.67;;;;;16.08;84.68;101259.22;5086887;27;45518;-57
2022/09/11 04:09:12;;;;;;;;;15.67;15.67;;;;;16.01;84.33;101252.53;5078316;28;45482;-57
2022/09/11 04:11:38;;;;;;;;;21.33;18.67;;;;;16.06;84.28;101253.97;5087275;27;46351;-57
2022/09/11 04:14:05;;;;;;;;;23.67;22.00;;;;;16.06;84.03;101255.78;5081646;27;45389;-56
2022/09/11 04:16:32;;;;;;;;;22.00;20.67;;;;;16.05;84.13;101254.06;5096229;27;45475;-56
2022/09/11 04:19:01;;;;;;;;;23.67;17.67;;;;;16.03;83.97;101250.63;5097691;27;45538;-56
2022/09/11 04:21:27;;;;;;;;;27.67;21.00;;;;;16.01;84.43;101263.25;5093971;27;48421;-57
2022/09/11 04:23:55;;;;;;;;;20.33;19.33;;;;;15.95;84.86;101264.56;5097575;27;45450;-55
2022/09/11 04:26:22;;;;;;;;;19.00;17.67;;;;;15.92;84.68;101265.63;5097336;27;45368;-56
2022/09/11 04:28:49;;;;;;;;;22.33;18.00;;;;;15.92;84.80;101267.44;5097423;27;45553;-58
2022/09/11 04:31:15;;;;;;;;;21.33;16.67;;;;;15.84;85.09;101262.59;5086023;27;45648;-57
2022/09/11 04:33:42;;;;;;;;;18.00;14.33;;;;;15.86;84.90;101279.44;5082515;27;45387;-57
2022/09/11 04:36:11;;;;;;;;;16.67;16.67;;;;;15.86;84.74;101276.75;5092753;27;45408;-56
2022/09/11 04:38:36;;;;;;;;;16.33;16.33;;;;;15.86;84.67;101270.53;5098282;27;45312;-57
2022/09/11 04:41:03;;;;;;;;;22.67;19.00;;;;;15.84;84.70;101267.09;5096316;27;45589;-58
2022/09/11 04:43:33;;;;;;;;;18.67;17.33;;;;;15.83;84.80;101276.97;5087831;27;45634;-57
2022/09/11 04:46:08;;;;;;;;;20.67;18.67;;;;;15.65;84.72;101251.38;5095884;27;45477;-59
2022/09/11 04:48:35;;;;;;;;;17.67;15.00;;;;;15.78;84.67;101276.44;5093140;27;47140;-59
2022/09/11 04:51:05;;;;;;;;;13.33;13.33;;;;;15.77;84.79;101277.38;5076920;27;47426;-59
2022/09/11 04:53:32;;;;;;;;;19.67;17.00;;;;;15.77;84.60;101277.38;5094916;27;46100;-57
2022/09/11 04:56:02;;;;;;;;;15.00;15.00;;;;;15.79;84.52;101275.47;5088149;27;45374;-58
2022/09/11 04:58:28;;;;;;;;;22.67;20.00;;;;;15.77;84.59;101287.25;5083584;27;45670;-56
2022/09/11 05:00:53;;;;;;;;;18.33;14.00;;;;;15.76;84.73;101296.28;5094440;27;46275;-56
2022/09/11 05:03:19;;;;;;;;;19.33;17.00;;;;;15.69;84.76;101293.13;5094711;27;45478;-60
2022/09/11 05:05:45;;;;;;;;;19.67;19.67;;;;;15.64;85.12;101292.56;5077672;27;45240;-55
2022/09/11 05:08:10;;;;;;;;;20.67;19.00;;;;;15.59;85.42;101294.66;5078195;27;45311;-58
2022/09/11 05:10:37;;;;;;;;;17.67;15.33;;;;;15.60;85.11;101301.75;5075340;27;47383;-58
2022/09/11 05:13:03;;;;;;;;;17.00;17.00;;;;;15.57;85.56;101297.44;5086517;27;45976;-57
2022/09/11 05:15:30;;;;;;;;;22.00;17.00;;;;;15.49;85.50;101293.53;5079871;27;45452;-57
2022/09/11 05:17:56;;;;;;;;;14.33;14.33;;;;;15.54;85.31;101302.16;5086158;27;45549;-57
2022/09/11 05:20:22;;;;;;;;;24.00;21.00;;;;;15.50;85.59;101296.13;5096957;27;46181;-61
2022/09/11 05:22:49;;;;;;;;;22.33;18.00;;;;;15.47;85.24;101296.31;5089755;27;45752;-57
2022/09/11 05:25:14;;;;;;;;;15.67;14.67;;;;;15.47;85.54;101298.13;5103873;27;45446;-58
2022/09/11 05:27:40;;;;;;;;;20.00;18.33;;;;;15.43;85.60;101297.47;5097765;27;45503;-57
2022/09/11 05:30:06;;;;;;;;;16.00;16.00;;;;;15.44;86.13;101306.38;5084652;27;45515;-59
2022/09/11 05:32:31;;;;;;;;;19.00;19.00;;;;;15.41;86.25;101314.63;5087898;27;45301;-57
2022/09/11 05:34:57;;;;;;;;;18.67;18.67;;;;;15.38;86.41;101318.38;5077349;27;46072;-57
2022/09/11 05:37:23;;;;;;;;;22.67;21.33;;;;;15.33;87.26;101321.31;5084022;27;45353;-58
2022/09/11 05:39:48;;;;;;;;;22.00;21.00;;;;;15.33;86.51;101315.09;5081881;27;47088;-57
2022/09/11 05:42:14;;;;;;;;;21.33;20.00;;;;;15.35;86.22;101311.38;5108699;27;46041;-57
2022/09/11 05:44:39;;;;;;;;;27.00;23.00;;;;;15.42;86.07;101319.03;5097640;27;45415;-56
2022/09/11 05:47:05;;;;;;;;;21.00;21.00;;;;;15.39;85.71;101319.22;5089703;27;45402;-56
2022/09/11 05:49:30;;;;;;;;;21.00;19.00;;;;;15.40;86.12;101326.31;5091402;27;46279;-58
2022/09/11 05:51:56;;;;;;;;;19.67;19.67;;;;;15.36;86.58;101328.31;5076082;27;45365;-56
2022/09/11 05:54:21;;;;;;;;;23.67;22.00;;;;;15.33;86.36;101326.69;5087180;27;45459;-58
2022/09/11 05:56:46;;;;;;;;;22.67;22.67;;;;;15.34;86.44;101323.03;5096187;27;45412;-54
2022/09/11 05:59:13;;;;;;;;;20.00;19.33;;;;;15.37;86.98;101334.56;5084296;27;45565;-57
2022/09/11 06:01:38;;;;;;;;;23.00;20.67;;;;;15.38;86.87;101344.31;5086949;27;45532;-55
2022/09/11 06:04:09;;;;;;;;;17.00;17.00;;;;;15.43;86.17;101343.03;5078395;27;45331;-55
2022/09/11 06:06:35;;;;;;;;;25.33;23.00;;;;;15.50;86.04;101346.22;5087245;27;45596;-55
2022/09/11 06:09:00;;;;;;;;;28.00;25.00;;;;;15.52;86.06;101336.25;5078275;27;46272;-57
2022/09/11 06:11:26;;;;;;;;;20.00;19.67;;;;;15.56;85.62;101343.97;5077871;27;45536;-53
2022/09/11 06:13:51;;;;;;;;;22.33;21.33;;;;;15.53;85.67;101335.28;5096531;27;45752;-62
2022/09/11 06:16:19;;;;;;;;;21.33;21.33;;;;;15.58;85.27;101336.69;5078376;27;45373;-55
2022/09/11 06:18:49;;;;;;;;;23.33;23.33;;;;;15.61;85.17;101332.97;5086279;27;45722;-54
2022/09/11 06:21:20;;;;;;;;;29.00;24.00;;;;;15.66;85.28;101333.56;5103583;27;45365;-54
2022/09/11 06:23:46;;;;;;;;;22.67;19.00;;;;;15.73;84.95;101350.09;5093596;27;45552;-57
2022/09/11 06:26:14;;;;;;;;;27.00;26.00;;;;;15.74;84.64;101344.63;5094481;27;45394;-56
2022/09/11 06:28:39;;;;;;;;;24.33;21.33;;;;;15.59;84.78;101319.66;5079768;27;45352;-59
2022/09/11 06:31:08;;;;;;;;;22.33;20.00;;;;;15.71;84.68;101336.78;5088251;27;45367;-56
2022/09/11 06:33:36;;;;;;;;;28.67;23.00;;;;;15.80;84.82;101346.91;5093134;27;45676;-57
2022/09/11 06:36:05;;;;;;;;;27.33;24.67;;;;;15.82;84.51;101344.97;5081260;27;45584;-58
2022/09/11 06:38:30;;;;;;;;;26.00;18.00;;;;;15.87;84.40;101347.34;5092212;27;45472;-61
2022/09/11 06:40:57;;;;;;;;;25.33;24.33;;;;;15.94;84.14;101354.03;5078126;27;45388;-56
2022/09/11 06:43:23;;;;;;;;;24.00;22.67;;;;;15.98;83.94;101352.88;5087045;27;45512;-55
2022/09/11 06:45:48;;;;;;;;;30.67;26.33;;;;;16.01;83.87;101343.75;5097594;27;45529;-58
2022/09/11 06:48:15;;;;;;;;;24.00;22.67;;;;;16.09;83.59;101353.03;5096260;27;45540;-56
2022/09/11 06:50:41;;;;;;;;;27.33;23.67;;;;;16.09;83.27;101336.91;5092692;27;45412;-56
2022/09/11 06:53:08;;;;;;;;;31.33;27.00;;;;;16.11;83.02;101339.50;5089790;27;45333;-56
2022/09/11 06:55:33;;;;;;;;;26.33;22.33;;;;;16.13;83.30;101353.66;5100202;27;45345;-56
2022/09/11 06:57:59;;;;;;;;;19.00;15.00;;;;;16.11;83.14;101347.53;5098426;27;46232;-58
2022/09/11 07:00:25;;;;;;;;;20.33;20.33;;;;;16.21;82.96;101344.16;5098705;27;45412;-58
2022/09/11 07:02:55;;;;;;;;;25.00;22.00;;;;;16.37;82.60;101346.63;5092461;27;45519;-57
2022/09/11 07:05:21;;;;;;;;;22.00;21.00;;;;;16.43;82.49;101340.88;5099332;27;45333;-57
2022/09/11 07:07:49;;;;;;;;;23.67;21.00;;;;;16.50;81.96;101347.50;5093339;27;45256;-59
2022/09/11 07:10:15;;;;;;;;;26.33;21.67;;;;;16.52;81.58;101345.56;5079247;27;45321;-58
2022/09/11 07:12:40;;;;;;;;;23.33;23.33;;;;;16.60;81.33;101347.75;5083915;27;45305;-56
2022/09/11 07:15:07;;;;;;;;;27.00;25.33;;;;;16.67;81.34;101353.56;5078095;28;45624;-58
2022/09/11 07:17:33;;;;;;;;;27.33;24.00;;;;;16.71;80.71;101334.47;5083486;27;46093;-57
2022/09/11 07:19:59;;;;;;;;;26.33;25.67;;;;;16.74;80.84;101342.31;5079200;27;45258;-58
2022/09/11 07:22:24;;;;;;;;;28.33;26.00;;;;;16.77;80.42;101349.28;5081768;27;45520;-57
2022/09/11 07:24:53;;;;;;;;;35.33;30.67;;;;;16.71;80.62;101337.16;5095430;27;45787;-57
2022/09/11 07:27:19;;;;;;;;;27.00;25.67;;;;;16.75;80.31;101325.22;5090514;27;46210;-56
2022/09/11 07:29:45;;;;;;;;;29.67;28.00;;;;;16.91;80.28;101341.13;5095976;27;45518;-57
2022/09/11 07:32:10;;;;;;;;;25.00;25.00;;;;;17.01;80.06;101344.88;5081762;27;45539;-56
2022/09/11 07:34:36;;;;;;;;;30.00;26.33;;;;;17.10;79.79;101340.69;5095458;27;45466;-58
2022/09/11 07:37:01;;;;;;;;;26.33;25.67;;;;;17.13;79.15;101336.91;5097638;27;47556;-56
2022/09/11 07:39:27;;;;;;;;;27.33;25.67;;;;;17.08;79.64;101338.09;5095921;27;45548;-56
2022/09/11 07:41:52;;;;;;;;;35.00;25.67;;;;;17.01;80.21;101339.50;5094075;27;45866;-57
2022/09/11 07:44:19;;;;;;;;;30.67;28.67;;;;;16.99;80.46;101346.81;5085962;27;45481;-58
2022/09/11 07:46:44;;;;;;;;;32.33;32.33;;;;;16.92;80.85;101337.47;5092713;27;46618;-57
2022/09/11 07:49:10;;;;;;;;;34.00;30.67;;;;;16.88;81.32;101341.34;5084738;27;45425;-58
2022/09/11 07:51:39;;;;;;;;;30.00;30.00;;;;;16.81;81.69;101340.06;5100264;27;45340;-59
2022/09/11 07:54:04;;;;;;;;;38.33;30.00;;;;;16.81;81.90;101342.75;5085977;27;45495;-55
2022/09/11 07:56:30;;;;;;;;;34.33;31.00;;;;;16.76;82.68;101343.06;5097540;27;46816;-58
2022/09/11 07:58:56;;;;;;;;;28.00;26.67;;;;;16.71;83.07;101347.03;5085757;27;45455;-60
2022/09/11 08:01:25;;;;;;;;;37.00;32.67;;;;;16.69;83.09;101352.53;5099115;27;45314;-60
2022/09/11 08:03:59;;;;;;;;;34.00;31.00;;;;;16.65;83.37;101334.00;5097277;27;45508;-60
2022/09/11 08:06:27;;;;;;;;;35.67;31.00;;;;;16.69;83.65;101338.25;5076913;27;46254;-60
2022/09/11 08:08:54;;;;;;;;;29.67;29.33;;;;;16.65;83.63;101337.53;5082872;27;45255;-59
2022/09/11 08:11:21;;;;;;;;;39.00;35.00;;;;;16.69;83.32;101340.91;5081652;27;45405;-58
2022/09/11 08:13:51;;;;;;;;;38.33;33.00;;;;;16.71;83.53;101341.66;5091270;27;45459;-58
2022/09/11 08:16:25;;;;;;;;;35.67;30.00;;;;;16.70;83.31;101338.13;5076698;27;45475;-59
2022/09/11 08:18:51;;;;;;;;;42.67;36.67;;;;;16.78;83.08;101345.63;5089795;27;45500;-57
2022/09/11 08:21:18;;;;;;;;;42.67;36.00;;;;;16.76;82.97;101328.75;5082180;27;45553;-58
2022/09/11 08:23:44;;;;;;;;;37.00;33.67;;;;;16.72;82.80;101329.97;5093519;27;45694;-57
2022/09/11 08:26:10;;;;;;;;;47.00;38.33;;;;;16.84;82.90;101339.84;5096332;27;46200;-57
2022/09/11 08:28:36;;;;;;;;;36.67;29.33;;;;;16.85;82.85;101338.00;5098351;27;45352;-57
2022/09/11 08:31:04;;;;;;;;;40.00;35.00;;;;;16.85;82.79;101325.44;5098681;27;45601;-60
2022/09/11 08:33:30;;;;;;;;;40.00;35.33;;;;;17.00;82.73;101335.09;5098318;27;45234;-56
2022/09/11 08:36:01;;;;;;;;;45.67;34.67;;;;;17.09;82.30;101329.06;5083074;27;45345;-58
2022/09/11 08:38:27;;;;;;;;;37.33;34.00;;;;;17.21;81.78;101339.91;5077611;28;45406;-56
2022/09/11 08:40:53;;;;;;;;;40.00;35.00;;;;;17.40;81.46;101337.59;5078004;27;45361;-56
2022/09/11 08:43:44;;;;;;;;;37.33;33.33;;;;;17.76;79.78;101339.47;5076653;28;45632;-58
2022/09/11 08:46:11;;;;;;;;;40.33;32.33;;;;;18.09;78.84;101336.06;5077834;28;46075;-57
2022/09/11 08:48:51;;;;;;;;;31.67;29.67;;;;;18.37;77.13;101325.91;5079416;27;45502;-58
2022/09/11 08:51:17;;;;;;;;;44.33;37.67;;;;;18.80;76.22;101340.44;5098550;27;45428;-55
2022/09/11 08:53:44;;;;;;;;;35.67;32.00;;;;;19.12;74.23;101345.97;5093856;27;46432;-60
2022/09/11 08:56:17;;;;;;;;;33.67;29.67;;;;;19.37;73.04;101347.56;5097468;27;45467;-56
2022/09/11 08:58:45;;;;;;;;;30.67;29.33;;;;;19.67;72.62;101351.47;5097639;27;45455;-57
2022/09/11 09:01:34;;;;;;;;;43.00;35.33;;;;;19.97;71.11;101346.22;5097568;27;45367;-58
2022/09/11 09:04:20;;;;;;;;;37.00;34.00;;;;;20.30;70.83;101352.47;5097621;27;45695;-57
2022/09/11 09:07:04;;;;;;;;;29.67;29.67;;;;;20.61;69.42;101346.19;5097372;27;45316;-57
2022/09/11 09:10:00;;;;;;;;;31.33;31.00;;;;;20.92;67.92;101332.69;5083134;27;45550;-56
2022/09/11 09:12:48;;;;;;;;;25.67;24.33;;;;;21.26;67.21;101338.72;5076883;27;45341;-57
2022/09/11 09:15:52;;;;;;;;;35.67;31.67;;;;;21.48;64.33;101340.34;5076926;27;45815;-56
2022/09/11 09:18:49;;;;;;;;;32.00;29.00;;;;;21.77;64.59;101341.28;5076575;27;46461;-57
2022/09/11 09:21:26;;;;;;;;;15.67;14.67;;;;;21.92;61.03;101339.03;5073280;28;45585;-56
2022/09/11 09:23:55;;;;;;;;;12.25;12.25;;;;;22.14;60.19;101343.34;5077104;27;45466;-57
2022/09/11 09:26:25;;;;;;;;;13.00;11.00;;;;;22.35;59.76;101346.75;5076873;27;45602;-55
2022/09/11 09:28:56;;;;;;;;;14.50;14.50;;;;;22.52;59.24;101342.44;5075381;28;46675;-57
2022/09/11 09:31:27;;;;;;;;;13.50;13.00;;;;;22.67;56.71;101346.44;5077086;27;45397;-57
2022/09/11 09:34:06;;;;;;;;;13.33;13.33;;;;;22.75;57.99;101342.97;5077435;27;45402;-57
2022/09/11 09:37:12;;;;;;;;;9.50;8.75;;;;;22.91;56.08;101347.81;5076527;27;45594;-56
2022/09/11 09:39:38;;;;;;;;;11.50;11.00;;;;;22.95;56.48;101336.53;5076204;27;46097;-56
2022/09/11 09:42:39;;;;;;;;;12.75;12.00;;;;;22.89;56.93;101345.25;5076279;27;45493;-57
2022/09/11 09:45:16;;;;;;;;;14.50;13.00;;;;;22.87;55.65;101338.25;5076315;27;45477;-55
2022/09/11 09:47:46;;;;;;;;;14.00;12.75;;;;;22.78;56.34;101336.38;5076345;27;45166;-58
2022/09/11 09:50:39;;;;;;;;;12.25;11.00;;;;;22.71;56.26;101335.28;5076565;27;45414;-58
2022/09/11 09:53:27;;;;;;;;;14.00;11.75;;;;;22.66;56.89;101343.88;5095618;27;45305;-57
2022/09/11 09:55:55;;;;;;;;;15.00;13.00;;;;;22.63;57.14;101333.28;5096794;27;45334;-57
2022/09/11 09:58:29;;;;;;;;;13.00;11.50;;;;;22.57;55.88;101333.88;5096617;27;45292;-58
2022/09/11 10:00:55;;;;;;;;;13.00;12.00;;;;;22.43;56.73;101326.22;5093632;27;45411;-56
2022/09/11 10:03:24;;;;;;;;;14.75;12.25;;;;;22.41;56.50;101325.50;5076153;27;45477;-58
2022/09/11 10:05:53;;;;;;;;;10.25;10.25;;;;;22.35;56.46;101338.63;5076101;27;45540;-57
2022/09/11 10:08:26;;;;;;;;;12.50;10.25;;;;;22.13;56.66;101330.78;5074944;27;45392;-56
2022/09/11 10:10:57;;;;;;;;;12.50;10.00;;;;;21.99;57.67;101328.47;5076009;27;45505;-58
2022/09/11 10:13:27;;;;;;;;;13.00;13.00;;;;;21.83;57.55;101328.16;5076250;27;45241;-58
2022/09/11 10:15:58;;;;;;;;;13.00;12.00;;;;;21.70;58.06;101334.72;5079069;27;45890;-57
2022/09/11 10:18:29;;;;;;;;;13.00;11.75;;;;;21.60;58.17;101327.56;5076586;27;45415;-57
2022/09/11 10:21:15;;;;;;;;;14.50;14.50;;;;;21.49;58.80;101336.69;5079877;27;46281;-57
2022/09/11 10:23:55;;;;;;;;;18.00;13.75;;;;;21.53;58.45;101338.09;5080684;27;45239;-60
2022/09/11 10:26:33;;;;;;;;;11.75;10.50;;;;;21.50;58.67;101327.56;5079966;27;45409;-57
2022/09/11 10:29:20;;;;;;;;;16.50;16.00;;;;;21.36;59.48;101327.94;5080270;27;45442;-58
2022/09/11 10:31:58;;;;;;;;;14.00;14.00;;;;;21.43;58.39;101331.81;5092418;27;47304;-57
2022/09/11 10:34:26;;;;;;;;;9.25;9.25;;;;;21.48;58.09;101327.69;5100106;27;45336;-56
2022/09/11 10:37:00;;;;;;;;;13.00;11.33;;;;;21.61;57.92;101330.13;5080017;27;45288;-57
2022/09/11 10:39:28;;;;;;;;;9.00;8.25;;;;;21.66;56.53;101324.31;5080178;27;45314;-57
2022/09/11 10:41:58;;;;;;;;;8.25;8.25;;;;;21.64;56.63;101318.19;5079667;27;45432;-57
2022/09/11 10:44:25;;;;;;;;;7.00;7.00;;;;;21.73;56.69;101317.31;5079389;27;45447;-56
2022/09/11 10:47:19;;;;;;;;;8.25;8.25;;;;;21.80;57.30;101321.19;5079921;27;45334;-58
2022/09/11 10:49:46;;;;;;;;;12.50;12.50;;;;;21.92;57.08;101311.94;5079234;27;45716;-57
2022/09/11 10:52:11;;;;;;;;;12.50;12.00;;;;;22.06;55.95;101318.81;5081357;27;45583;-59
2022/09/11 10:54:58;;;;;;;;;10.50;8.25;;;;;22.12;55.01;101307.41;5099856;27;45407;-56
2022/09/11 10:57:32;;;;;;;;;9.00;9.00;;;;;21.97;55.81;101304.22;5100259;27;45373;-58
2022/09/11 11:00:10;;;;;;;;;9.50;9.50;;;;;22.01;55.01;101304.81;5098892;27;45496;-59
2022/09/11 11:02:43;;;;;;;;;9.75;8.75;;;;;22.13;55.49;101287.44;5100009;27;46235;-58
2022/09/11 11:05:29;;;;;;;;;8.50;6.25;;;;;22.19;54.77;101286.03;5099778;27;45512;-58
2022/09/11 11:08:32;;;;;;;;;8.25;7.25;;;;;22.27;54.14;101278.88;5100135;27;45291;-58
2022/09/11 11:11:13;;;;;;;;;8.00;7.75;;;;;22.29;54.07;101271.47;5079669;27;45295;-57
2022/09/11 11:14:29;;;;;;;;;7.75;7.25;;;;;22.37;53.98;101285.13;5079086;27;45356;-57
2022/09/11 11:17:15;;;;;;;;;8.00;8.00;;;;;22.47;54.25;101284.25;5069424;27;45391;-57
2022/09/11 11:20:09;;;;;;;;;3.00;2.00;;;;;22.51;54.83;101270.25;5078947;27;45463;-57
2022/09/11 11:23:13;;;;;;;;;6.00;6.00;;;;;22.66;53.70;101268.81;5078898;27;45467;-59
2022/09/11 11:25:56;;;;;;;;;6.25;6.25;;;;;22.85;53.19;101278.75;5069841;27;46139;-55
2022/09/11 11:28:50;;;;;;;;;6.00;6.00;;;;;23.02;52.42;101278.94;5078685;27;45427;-57